createdAt,value
2018-07-12T00:00:00.377Z,15.64
2018-07-12T00:02:28.328Z,15.62
2018-07-12T00:04:55.893Z,15.69
2018-07-12T00:07:23.432Z,15.64
2018-07-12T00:09:51.024Z,15.71
2018-07-12T00:12:18.707Z,15.72
2018-07-12T00:14:46.308Z,15.76
2018-07-12T00:17:14.081Z,15.74
2018-07-12T00:19:41.645Z,15.67
2018-07-12T00:22:09.129Z,15.70
2018-07-12T00:24:36.798Z,15.66
2018-07-12T00:27:04.793Z,15.66
2018-07-12T00:29:32.307Z,15.69
2018-07-12T00:32:00.128Z,15.64
2018-07-12T00:34:27.927Z,15.59
2018-07-12T00:36:55.519Z,15.65
2018-07-12T00:39:23.240Z,15.71
2018-07-12T00:41:51.315Z,15.62
2018-07-12T00:44:19.492Z,15.64
2018-07-12T00:46:47.253Z,15.69
2018-07-12T00:49:15.196Z,15.67
2018-07-12T00:51:42.784Z,15.81
2018-07-12T00:54:10.451Z,15.74
2018-07-12T00:56:39.343Z,15.63
2018-07-12T00:59:07.116Z,15.67
2018-07-12T01:01:34.861Z,15.72
2018-07-12T01:04:02.634Z,15.72
2018-07-12T01:06:30.194Z,15.68
2018-07-12T01:08:57.853Z,15.82
2018-07-12T01:11:25.517Z,15.77
2018-07-12T01:13:53.167Z,15.70
2018-07-12T01:16:21.419Z,15.74
2018-07-12T01:18:49.102Z,15.71
2018-07-12T01:21:16.728Z,15.70
2018-07-12T01:23:44.368Z,15.71
2018-07-12T01:26:12.098Z,15.68
2018-07-12T01:28:39.970Z,15.78
2018-07-12T01:31:07.593Z,15.73
2018-07-12T01:33:35.271Z,15.70
2018-07-12T01:36:02.898Z,15.55
2018-07-12T01:38:30.589Z,15.53
2018-07-12T01:40:58.217Z,15.52
2018-07-12T01:43:25.863Z,15.44
2018-07-12T01:45:53.602Z,15.48
2018-07-12T01:48:21.215Z,15.52
2018-07-12T01:50:48.905Z,15.40
2018-07-12T01:53:16.576Z,15.35
2018-07-12T01:55:44.197Z,15.42
2018-07-12T01:58:11.833Z,15.46
2018-07-12T02:00:39.652Z,15.49
2018-07-12T02:03:07.799Z,15.43
2018-07-12T02:05:35.452Z,15.35
2018-07-12T02:08:03.169Z,15.34
2018-07-12T02:10:30.835Z,15.32
2018-07-12T02:12:58.295Z,15.28
2018-07-12T02:15:25.888Z,15.25
2018-07-12T02:17:53.533Z,15.20
2018-07-12T02:20:21.280Z,15.14
2018-07-12T02:22:49.101Z,15.18
2018-07-12T02:25:17.341Z,15.21
2018-07-12T02:27:45.038Z,15.12
2018-07-12T02:30:12.680Z,15.09
2018-07-12T02:32:40.199Z,15.07
2018-07-12T02:35:07.828Z,15.08
2018-07-12T02:37:35.526Z,15.05
2018-07-12T02:40:03.143Z,14.94
2018-07-12T02:42:30.830Z,14.98
2018-07-12T02:44:58.439Z,14.90
2018-07-12T02:47:26.381Z,15.00
2018-07-12T02:49:54.206Z,15.02
2018-07-12T02:52:22.097Z,15.00
2018-07-12T02:54:49.749Z,14.89
2018-07-12T02:57:17.481Z,14.89
2018-07-12T02:59:45.299Z,14.91
2018-07-12T03:02:12.961Z,14.94
2018-07-12T03:04:40.612Z,14.96
2018-07-12T03:07:08.285Z,15.01
2018-07-12T03:09:35.942Z,15.01
2018-07-12T03:12:03.556Z,14.97
2018-07-12T03:14:31.339Z,15.02
2018-07-12T03:16:58.912Z,15.01
2018-07-12T03:19:26.589Z,15.01
2018-07-12T03:21:54.928Z,15.04
2018-07-12T03:24:22.534Z,15.04
2018-07-12T03:26:50.180Z,15.08
2018-07-12T03:29:17.760Z,15.10
2018-07-12T03:31:45.364Z,15.06
2018-07-12T03:34:13.581Z,15.09
2018-07-12T03:36:42.567Z,15.10
2018-07-12T03:39:10.049Z,15.00
2018-07-12T03:41:37.522Z,15.03
2018-07-12T03:44:05.153Z,15.05
2018-07-12T03:46:32.656Z,15.04
2018-07-12T03:49:00.381Z,15.08
2018-07-12T03:51:28.028Z,15.06
2018-07-12T03:53:55.488Z,15.11
2018-07-12T03:56:23.740Z,15.00
2018-07-12T03:58:51.543Z,15.03
2018-07-12T04:04:14.602Z,15.05
2018-07-12T04:06:42.295Z,15.07
2018-07-12T04:09:09.917Z,15.08
2018-07-12T04:11:37.595Z,15.02
2018-07-12T04:14:05.086Z,15.05
2018-07-12T04:16:32.700Z,15.07
2018-07-12T04:19:00.203Z,15.06
2018-07-12T04:21:27.821Z,15.08
2018-07-12T04:23:55.301Z,15.02
2018-07-12T04:26:22.955Z,15.13
2018-07-12T04:28:50.640Z,15.11
2018-07-12T04:31:18.267Z,15.07
2018-07-12T04:33:46.012Z,15.14
2018-07-12T04:36:14.004Z,15.20
2018-07-12T04:38:41.863Z,15.17
2018-07-12T04:41:09.550Z,15.24
2018-07-12T04:43:37.185Z,15.23
2018-07-12T04:46:04.645Z,15.22
2018-07-12T04:48:32.731Z,15.26
2018-07-12T04:51:00.185Z,15.36
2018-07-12T04:53:27.845Z,15.43
2018-07-12T04:55:55.493Z,15.42
2018-07-12T04:58:23.091Z,15.41
2018-07-12T05:00:50.859Z,15.50
2018-07-12T05:03:18.498Z,15.58
2018-07-12T05:05:46.195Z,15.55
2018-07-12T05:08:13.862Z,15.54
2018-07-12T05:10:41.465Z,15.64
2018-07-12T05:13:09.330Z,15.64
2018-07-12T05:15:37.005Z,15.65
2018-07-12T05:18:04.654Z,15.71
2018-07-12T05:20:32.340Z,15.74
2018-07-12T05:22:59.999Z,15.74
2018-07-12T05:25:27.676Z,15.79
2018-07-12T05:27:55.302Z,15.81
2018-07-12T05:30:22.972Z,15.80
2018-07-12T05:32:50.798Z,15.84
2018-07-12T05:35:18.503Z,15.91
2018-07-12T05:37:47.848Z,15.93
2018-07-12T05:40:17.013Z,15.88
2018-07-12T05:42:46.244Z,15.94
2018-07-12T05:45:15.464Z,15.98
2018-07-12T05:47:44.808Z,16.07
2018-07-12T05:50:14.203Z,16.13
2018-07-12T05:52:43.535Z,16.12
2018-07-12T05:55:13.134Z,16.20
2018-07-12T05:57:43.680Z,16.19
2018-07-12T06:00:16.227Z,16.21
2018-07-12T06:02:47.713Z,16.25
2018-07-12T06:05:19.334Z,16.25
2018-07-12T06:07:50.276Z,16.31
2018-07-12T06:10:23.904Z,16.27
2018-07-12T06:12:53.452Z,16.33
2018-07-12T06:15:25.328Z,16.34
2018-07-12T06:18:03.331Z,16.42
2018-07-12T06:20:33.208Z,16.34
2018-07-12T06:23:04.974Z,16.39
2018-07-12T06:25:35.318Z,16.40
2018-07-12T06:28:06.075Z,16.57
2018-07-12T06:30:37.707Z,16.57
2018-07-12T06:33:09.240Z,16.67
2018-07-12T06:35:41.482Z,16.81
2018-07-12T06:38:12.102Z,16.91
2018-07-12T06:40:49.869Z,16.99
2018-07-12T06:43:24.854Z,17.06
2018-07-12T06:46:02.817Z,17.11
2018-07-12T06:48:34.948Z,17.16
2018-07-12T06:51:06.722Z,17.18
2018-07-12T06:53:37.892Z,17.11
2018-07-12T06:56:11.238Z,17.09
2018-07-12T06:58:41.656Z,17.11
2018-07-12T07:01:15.493Z,17.10
2018-07-12T07:03:46.228Z,17.25
2018-07-12T07:06:16.860Z,17.36
2018-07-12T07:08:53.426Z,17.37
2018-07-12T07:14:07.439Z,17.34
2018-07-12T07:16:42.474Z,17.19
2018-07-12T07:19:18.570Z,17.19
2018-07-12T07:21:51.274Z,17.26
2018-07-12T07:24:31.465Z,17.29
2018-07-12T07:27:07.923Z,17.28
2018-07-12T07:29:48.987Z,17.36
2018-07-12T07:32:29.411Z,17.45
2018-07-12T07:35:04.313Z,17.50
2018-07-12T07:37:51.919Z,17.43
2018-07-12T07:40:31.774Z,17.46
2018-07-12T07:43:29.727Z,17.35
2018-07-12T07:46:08.804Z,17.61
2018-07-12T07:48:43.911Z,17.51
2018-07-12T07:51:24.257Z,17.49
2018-07-12T07:54:10.477Z,17.49
2018-07-12T07:56:52.502Z,17.53
2018-07-12T07:59:25.037Z,17.58
2018-07-12T08:02:05.628Z,17.53
2018-07-12T08:04:56.266Z,17.62
2018-07-12T08:07:30.233Z,17.62
2018-07-12T08:12:53.661Z,17.53
2018-07-12T08:15:28.084Z,17.46
2018-07-12T08:21:21.423Z,17.58
2018-07-12T08:24:06.542Z,17.53
2018-07-12T08:26:48.446Z,17.46
2018-07-12T08:29:41.803Z,17.56
2018-07-12T08:32:33.998Z,17.50
2018-07-12T08:35:20.938Z,17.52
2018-07-12T08:38:00.872Z,17.52
2018-07-12T08:40:56.824Z,17.53
2018-07-12T08:43:34.970Z,17.49
2018-07-12T08:46:55.717Z,17.40
2018-07-12T08:49:31.290Z,17.50
2018-07-12T08:52:06.913Z,17.38
2018-07-12T08:54:44.832Z,17.44
2018-07-12T08:57:27.766Z,17.38
2018-07-12T09:00:05.950Z,17.38
2018-07-12T09:02:54.797Z,17.50
2018-07-12T09:11:16.783Z,17.46
2018-07-12T09:14:57.069Z,17.46
2018-07-12T09:20:54.311Z,17.55
2018-07-12T09:26:47.731Z,17.50
2018-07-12T09:29:47.103Z,17.51
2018-07-12T09:33:38.984Z,17.42
2018-07-12T09:36:23.431Z,17.53
2018-07-12T09:42:02.780Z,18.01
2018-07-12T09:44:47.207Z,18.12
2018-07-12T09:47:28.164Z,18.27
2018-07-12T09:53:24.411Z,18.18
2018-07-12T09:56:20.469Z,18.09
2018-07-12T09:59:10.233Z,17.99
2018-07-12T10:01:56.386Z,17.88
2018-07-12T10:04:39.029Z,17.89
2018-07-12T10:08:27.383Z,17.94
2018-07-12T10:11:20.712Z,17.86
2018-07-12T10:14:32.884Z,17.78
2018-07-12T10:19:26.391Z,17.70
2018-07-12T10:22:10.011Z,17.87
2018-07-12T10:25:10.346Z,17.78
2018-07-12T10:27:47.584Z,17.84
2018-07-12T10:30:29.681Z,17.76
2018-07-12T10:33:12.985Z,17.83
2018-07-12T10:35:58.518Z,17.78
2018-07-12T10:38:38.773Z,17.94
2018-07-12T10:41:30.937Z,17.97
2018-07-12T10:47:14.707Z,17.93
2018-07-12T10:49:55.632Z,18.04
2018-07-12T10:53:09.233Z,18.09
2018-07-12T10:55:53.436Z,18.01
2018-07-12T10:58:53.648Z,18.29
2018-07-12T11:01:29.302Z,18.45
2018-07-12T11:04:21.901Z,18.44
2018-07-12T11:07:08.130Z,18.35
2018-07-12T11:10:16.935Z,18.43
2018-07-12T11:16:11.257Z,18.33
2018-07-12T11:19:08.976Z,18.37
2018-07-12T11:21:48.644Z,18.59
2018-07-12T11:24:39.390Z,18.83
2018-07-12T11:27:24.807Z,18.93
2018-07-12T11:30:05.048Z,19.22
2018-07-12T11:32:52.380Z,19.30
2018-07-12T11:35:32.259Z,19.29
2018-07-12T11:38:24.378Z,19.70
2018-07-12T11:41:22.927Z,19.87
2018-07-12T11:44:18.152Z,20.06
2018-07-12T11:47:04.140Z,20.50
2018-07-12T11:56:10.521Z,20.02
2018-07-12T11:58:59.343Z,19.99
2018-07-12T12:01:43.703Z,20.04
2018-07-12T12:10:33.503Z,20.54
2018-07-12T12:13:14.243Z,20.93
2018-07-12T12:16:07.291Z,21.52
2018-07-12T12:19:08.340Z,21.95
2018-07-12T12:21:46.039Z,21.28
2018-07-12T12:24:32.170Z,21.07
2018-07-12T12:30:27.464Z,21.08
2018-07-12T12:42:07.866Z,20.88
2018-07-12T12:44:53.206Z,20.77
2018-07-12T12:47:55.339Z,20.76
2018-07-12T12:50:34.817Z,20.44
2018-07-12T12:53:09.610Z,20.48
2018-07-12T12:58:36.275Z,20.30
2018-07-12T13:04:09.825Z,20.30
2018-07-12T13:10:12.182Z,21.04
2018-07-12T13:12:56.360Z,20.97
2018-07-12T13:15:43.290Z,20.95
2018-07-12T13:18:30.655Z,20.71
2018-07-12T13:21:13.976Z,20.73
2018-07-12T13:23:57.469Z,20.70
